createdAt,value
2018-05-16T00:02:17.511Z,17.15
2018-05-16T00:04:44.933Z,17.07
2018-05-16T00:07:12.350Z,16.98
2018-05-16T00:09:39.807Z,16.80
2018-05-16T00:12:08.146Z,16.72
2018-05-16T00:14:35.598Z,16.66
2018-05-16T00:17:03.040Z,16.60
2018-05-16T00:19:30.502Z,16.75
2018-05-16T00:22:02.087Z,16.73
2018-05-16T00:24:29.541Z,16.72
2018-05-16T00:26:56.970Z,16.81
2018-05-16T00:29:24.442Z,16.89
2018-05-16T00:31:51.926Z,16.95
2018-05-16T00:34:19.392Z,16.95
2018-05-16T00:36:47.826Z,16.94
2018-05-16T00:39:15.249Z,16.72
2018-05-16T00:41:42.966Z,16.61
2018-05-16T00:44:10.400Z,16.70
2018-05-16T00:46:37.857Z,16.63
2018-05-16T00:49:06.272Z,16.64
2018-05-16T00:51:33.706Z,16.69
2018-05-16T00:54:01.129Z,16.72
2018-05-16T00:56:28.585Z,16.83
2018-05-16T00:58:56.016Z,16.80
2018-05-16T01:01:23.458Z,16.78
2018-05-16T01:03:50.894Z,16.73
2018-05-16T01:06:18.351Z,16.61
2018-05-16T01:08:45.787Z,16.50
2018-05-16T01:11:13.233Z,16.41
2018-05-16T01:13:40.661Z,16.24
2018-05-16T01:16:08.107Z,16.18
2018-05-16T01:18:35.541Z,16.13
2018-05-16T01:21:03.001Z,16.03
2018-05-16T01:23:30.433Z,16.04
2018-05-16T01:25:57.853Z,16.03
2018-05-16T01:28:25.938Z,16.08
2018-05-16T01:30:53.358Z,16.08
2018-05-16T01:33:20.809Z,16.10
2018-05-16T01:35:48.232Z,16.01
2018-05-16T01:38:15.688Z,16.02
2018-05-16T01:40:44.050Z,15.95
2018-05-16T01:43:11.506Z,16.04
2018-05-16T01:45:38.934Z,16.09
2018-05-16T01:48:09.737Z,16.16
2018-05-16T01:50:37.158Z,16.23
2018-05-16T01:53:04.610Z,16.37
2018-05-16T01:55:32.038Z,16.39
2018-05-16T01:57:59.495Z,16.38
2018-05-16T02:00:26.930Z,16.36
2018-05-16T02:02:54.373Z,16.41
2018-05-16T02:05:21.830Z,16.39
2018-05-16T02:07:50.182Z,16.30
2018-05-16T02:10:17.642Z,16.41
2018-05-16T02:12:45.070Z,16.34
2018-05-16T02:15:12.525Z,16.38
2018-05-16T02:17:39.950Z,16.35
2018-05-16T02:20:07.427Z,16.36
2018-05-16T02:22:34.861Z,16.39
2018-05-16T02:25:03.321Z,16.35
2018-05-16T02:27:30.742Z,16.33
2018-05-16T02:29:58.192Z,16.45
2018-05-16T02:32:25.630Z,16.47
2018-05-16T02:34:53.085Z,16.46
2018-05-16T02:37:20.524Z,16.44
2018-05-16T02:39:47.990Z,16.44
2018-05-16T02:44:53.773Z,16.36
2018-05-16T02:47:21.198Z,16.21
2018-05-16T02:49:48.618Z,16.13
2018-05-16T02:52:16.063Z,16.13
2018-05-16T02:54:43.500Z,16.02
2018-05-16T02:57:10.977Z,15.96
2018-05-16T02:59:38.406Z,15.95
2018-05-16T03:02:05.850Z,15.93
2018-05-16T03:04:33.269Z,16.02
2018-05-16T03:07:00.726Z,16.08
2018-05-16T03:09:28.143Z,16.21
2018-05-16T03:11:55.594Z,16.22
2018-05-16T03:14:23.015Z,16.28
2018-05-16T03:16:50.484Z,16.25
2018-05-16T03:19:17.946Z,16.30
2018-05-16T03:21:45.402Z,16.25
2018-05-16T03:24:12.825Z,16.21
2018-05-16T03:26:40.283Z,16.17
2018-05-16T03:29:07.714Z,16.28
2018-05-16T03:31:35.164Z,16.36
2018-05-16T03:34:02.595Z,16.60
2018-05-16T03:36:30.079Z,16.62
2018-05-16T03:38:57.517Z,16.74
2018-05-16T03:41:24.948Z,16.90
2018-05-16T03:43:52.409Z,16.95
2018-05-16T03:46:19.829Z,16.94
2018-05-16T03:48:47.289Z,17.06
2018-05-16T03:51:14.841Z,17.06
2018-05-16T03:53:42.300Z,17.20
2018-05-16T03:56:10.653Z,17.25
2018-05-16T03:58:49.964Z,17.31
2018-05-16T04:01:29.157Z,17.35
2018-05-16T04:04:03.273Z,17.46
2018-05-16T04:06:30.731Z,17.48
2018-05-16T04:08:58.293Z,17.52
2018-05-16T04:11:25.754Z,17.63
2018-05-16T04:13:53.202Z,17.68
2018-05-16T04:16:21.545Z,17.75
2018-05-16T04:18:49.014Z,17.78
2018-05-16T04:21:16.440Z,17.92
2018-05-16T04:23:43.889Z,17.97
2018-05-16T04:26:11.313Z,18.11
2018-05-16T04:28:38.773Z,18.20
2018-05-16T04:31:06.189Z,18.16
2018-05-16T04:33:33.609Z,18.17
2018-05-16T04:36:01.061Z,18.25
2018-05-16T04:38:28.477Z,18.30
2018-05-16T04:40:55.926Z,18.24
2018-05-16T04:43:23.346Z,18.21
2018-05-16T04:45:50.862Z,18.22
2018-05-16T04:48:18.278Z,18.34
2018-05-16T04:50:45.723Z,18.39
2018-05-16T04:53:13.145Z,18.37
2018-05-16T04:55:40.594Z,18.40
2018-05-16T04:58:08.017Z,18.44
2018-05-16T05:00:35.454Z,18.36
2018-05-16T05:03:02.873Z,18.35
2018-05-16T05:05:30.321Z,18.34
2018-05-16T05:07:57.742Z,18.28
2018-05-16T05:10:25.206Z,18.30
2018-05-16T05:12:52.633Z,18.32
2018-05-16T05:15:21.030Z,18.06
2018-05-16T05:17:48.469Z,17.93
2018-05-16T05:20:15.889Z,18.01
2018-05-16T05:22:43.341Z,18.29
2018-05-16T05:25:10.758Z,18.30
2018-05-16T05:27:38.201Z,18.23
2018-05-16T05:30:05.642Z,18.26
2018-05-16T05:32:33.105Z,18.53
2018-05-16T05:35:00.522Z,18.62
2018-05-16T05:37:27.979Z,18.96
2018-05-16T05:39:56.409Z,19.18
2018-05-16T05:42:24.773Z,19.35
2018-05-16T05:44:52.204Z,19.52
2018-05-16T05:47:19.641Z,19.66
2018-05-16T05:49:48.077Z,19.59
2018-05-16T05:52:15.519Z,19.46
2018-05-16T05:54:42.933Z,19.79
2018-05-16T05:57:10.377Z,20.03
2018-05-16T05:59:37.794Z,19.91
2018-05-16T06:02:05.247Z,19.97
2018-05-16T06:04:34.599Z,20.04
2018-05-16T06:07:02.937Z,20.29
2018-05-16T06:09:30.387Z,20.43
2018-05-16T06:11:57.799Z,20.43
2018-05-16T06:14:26.253Z,20.71
2018-05-16T06:16:53.678Z,20.75
2018-05-16T06:19:21.127Z,21.02
2018-05-16T06:21:48.537Z,20.96
2018-05-16T06:24:15.994Z,20.78
2018-05-16T06:26:43.418Z,20.84
2018-05-16T06:29:11.775Z,20.66
2018-05-16T06:31:39.186Z,21.10
2018-05-16T06:34:06.635Z,21.36
2018-05-16T06:36:34.055Z,21.39
2018-05-16T06:39:01.516Z,21.19
2018-05-16T06:41:28.932Z,21.42
2018-05-16T06:43:56.348Z,21.21
2018-05-16T06:46:23.817Z,21.34
2018-05-16T06:48:51.230Z,21.10
2018-05-16T06:51:18.669Z,21.11
2018-05-16T06:53:51.152Z,20.95
2018-05-16T06:56:18.600Z,20.82
2018-05-16T06:58:49.242Z,20.63
2018-05-16T07:01:16.737Z,20.86
2018-05-16T07:03:44.193Z,20.98
2018-05-16T07:06:11.645Z,20.95
2018-05-16T07:08:39.105Z,21.14
2018-05-16T07:11:06.562Z,21.10
2018-05-16T07:13:34.118Z,21.25
2018-05-16T07:16:01.496Z,20.67
2018-05-16T07:18:29.822Z,20.72
2018-05-16T07:20:57.271Z,20.66
2018-05-16T07:23:24.690Z,20.26
2018-05-16T07:25:52.226Z,20.66
2018-05-16T07:28:19.674Z,20.71
2018-05-16T07:30:47.154Z,20.53
2018-05-16T07:33:14.601Z,20.26
2018-05-16T07:35:42.058Z,20.63
2018-05-16T07:38:09.522Z,20.75
2018-05-16T07:40:36.980Z,20.69
2018-05-16T07:43:04.437Z,20.46
2018-05-16T07:45:31.875Z,20.44
2018-05-16T07:47:59.329Z,20.43
2018-05-16T07:50:28.732Z,20.30
2018-05-16T07:52:56.205Z,20.69
2018-05-16T07:55:23.629Z,20.73
2018-05-16T07:57:51.113Z,20.72
2018-05-16T08:00:18.539Z,20.85
2018-05-16T08:02:45.986Z,20.91
2018-05-16T08:05:13.413Z,21.33
2018-05-16T08:07:41.859Z,21.92
2018-05-16T08:10:10.282Z,21.58
2018-05-16T08:12:37.669Z,21.22
2018-05-16T08:15:05.088Z,21.43
2018-05-16T08:17:32.508Z,21.20
2018-05-16T08:20:00.069Z,21.15
2018-05-16T08:22:27.477Z,21.42
2018-05-16T08:24:55.925Z,22.21
2018-05-16T08:27:23.337Z,22.28
2018-05-16T08:29:50.789Z,22.11
2018-05-16T08:32:18.221Z,22.32
2018-05-16T08:34:45.673Z,22.07
2018-05-16T08:37:13.192Z,21.45
2018-05-16T08:39:40.637Z,21.05
2018-05-16T08:42:08.057Z,21.01
2018-05-16T08:44:35.522Z,20.66
2018-05-16T08:47:02.945Z,20.42
2018-05-16T08:49:31.350Z,20.61
2018-05-16T08:51:58.857Z,20.98
2018-05-16T08:54:26.290Z,21.46
2018-05-16T08:56:53.730Z,21.40
2018-05-16T08:59:22.098Z,22.18
2018-05-16T09:01:49.593Z,22.04
2018-05-16T09:04:17.054Z,21.59
2018-05-16T09:06:44.497Z,21.90
2018-05-16T09:09:12.065Z,22.15
2018-05-16T09:11:39.521Z,22.69
2018-05-16T09:14:06.941Z,22.08
2018-05-16T09:16:34.396Z,21.37
2018-05-16T09:19:01.812Z,20.89
2018-05-16T09:21:29.257Z,21.70
2018-05-16T09:23:56.736Z,21.90
2018-05-16T09:26:24.173Z,21.81
2018-05-16T09:28:51.589Z,22.03
2018-05-16T09:31:19.009Z,22.17
2018-05-16T09:33:46.461Z,22.27
2018-05-16T09:36:13.869Z,23.06
2018-05-16T09:38:41.317Z,22.83
2018-05-16T09:41:08.741Z,22.48
2018-05-16T09:43:37.206Z,22.93
2018-05-16T09:46:04.713Z,22.78
2018-05-16T09:48:32.078Z,22.82
2018-05-16T09:50:59.550Z,22.63
2018-05-16T09:53:27.113Z,22.71
2018-05-16T09:55:54.538Z,22.54
2018-05-16T09:58:21.990Z,22.39
2018-05-16T10:00:49.409Z,22.35
2018-05-16T10:03:16.854Z,22.35
2018-05-16T10:05:44.274Z,22.42
2018-05-16T10:08:11.726Z,22.02
2018-05-16T10:10:39.151Z,21.64
2018-05-16T10:13:06.577Z,21.38
2018-05-16T10:15:34.030Z,21.36
2018-05-16T10:18:01.450Z,21.42
2018-05-16T10:20:28.893Z,21.50
2018-05-16T10:22:56.325Z,22.21
2018-05-16T10:25:25.781Z,22.38
2018-05-16T10:27:53.202Z,21.78
2018-05-16T10:30:20.649Z,22.03
2018-05-16T10:32:48.074Z,22.02
2018-05-16T10:35:15.521Z,21.93
2018-05-16T10:37:42.946Z,22.14
2018-05-16T10:40:10.385Z,22.42
2018-05-16T10:42:37.889Z,22.43
2018-05-16T10:45:05.538Z,22.52
2018-05-16T10:47:32.961Z,22.98
2018-05-16T10:50:01.297Z,23.22
2018-05-16T10:52:28.734Z,23.57
2018-05-16T10:54:56.290Z,23.19
2018-05-16T10:57:23.742Z,22.80
2018-05-16T10:59:51.171Z,22.99
2018-05-16T11:02:18.657Z,22.92
2018-05-16T11:04:46.086Z,23.08
2018-05-16T11:07:14.481Z,22.87
2018-05-16T11:09:41.905Z,23.01
2018-05-16T11:12:09.345Z,23.28
2018-05-16T11:14:36.761Z,23.69
2018-05-16T11:17:04.205Z,24.08
2018-05-16T11:19:32.593Z,24.07
2018-05-16T11:22:00.039Z,23.93
2018-05-16T11:24:27.468Z,24.16
2018-05-16T11:26:54.911Z,23.97
2018-05-16T11:29:22.422Z,23.91
2018-05-16T11:31:49.873Z,24.04
2018-05-16T11:34:17.299Z,24.39
2018-05-16T11:36:44.742Z,24.96
2018-05-16T11:39:12.250Z,25.83
2018-05-16T11:41:40.669Z,26.19
2018-05-16T11:44:08.090Z,26.71
2018-05-16T11:46:35.528Z,26.70
2018-05-16T11:49:04.225Z,27.10
2018-05-16T11:51:31.366Z,27.06
2018-05-16T11:53:58.838Z,26.75
2018-05-16T11:56:26.258Z,25.43
2018-05-16T11:58:54.768Z,25.49
2018-05-16T12:01:22.241Z,25.36
2018-05-16T12:03:51.625Z,25.52
2018-05-16T12:06:19.483Z,25.96
2018-05-16T12:08:46.930Z,25.74
2018-05-16T12:11:14.355Z,25.67
2018-05-16T12:13:42.716Z,25.60
2018-05-16T12:16:10.133Z,25.38
2018-05-16T12:18:38.474Z,25.63
2018-05-16T12:21:05.890Z,26.09
2018-05-16T12:23:33.337Z,25.72
2018-05-16T12:26:00.765Z,26.22
2018-05-16T12:28:28.242Z,26.62
2018-05-16T12:30:55.659Z,27.14
2018-05-16T12:33:23.117Z,27.10
2018-05-16T12:35:50.534Z,26.43
2018-05-16T12:38:17.956Z,26.54
2018-05-16T12:40:45.415Z,25.45
2018-05-16T12:43:17.804Z,25.31
2018-05-16T12:45:45.249Z,25.08
2018-05-16T12:48:12.678Z,25.04
2018-05-16T12:50:45.905Z,25.87
2018-05-16T12:53:14.289Z,26.84
2018-05-16T12:55:41.786Z,27.17
2018-05-16T12:58:09.162Z,26.66
2018-05-16T13:00:37.570Z,26.46
2018-05-16T13:03:05.926Z,26.85
2018-05-16T13:05:33.377Z,26.61
2018-05-16T13:08:00.866Z,25.93
2018-05-16T13:10:28.425Z,25.77
2018-05-16T13:12:55.886Z,25.98
2018-05-16T13:15:23.337Z,25.60
2018-05-16T13:17:50.899Z,25.61
2018-05-16T13:20:19.143Z,25.57
2018-05-16T13:22:46.748Z,25.23
2018-05-16T13:25:14.177Z,24.80
2018-05-16T13:27:41.750Z,25.18
2018-05-16T13:30:09.166Z,25.31
2018-05-16T13:32:36.622Z,25.05
2018-05-16T13:35:04.116Z,25.21
2018-05-16T13:37:31.573Z,25.90
2018-05-16T13:39:59.007Z,25.51
2018-05-16T13:42:26.484Z,25.75
2018-05-16T13:44:53.949Z,26.24
2018-05-16T13:47:21.385Z,25.43
2018-05-16T13:49:48.887Z,25.36
2018-05-16T13:52:16.329Z,25.43
2018-05-16T13:54:43.777Z,25.17
2018-05-16T13:57:11.192Z,25.05
2018-05-16T13:59:38.693Z,24.56
2018-05-16T14:02:06.105Z,24.24
2018-05-16T14:04:33.563Z,24.23
2018-05-16T14:07:01.055Z,24.24
2018-05-16T14:09:28.623Z,24.68
2018-05-16T14:11:56.054Z,25.77
2018-05-16T14:14:23.494Z,25.58
2018-05-16T14:16:50.924Z,24.82
2018-05-16T14:19:18.354Z,27.14
2018-05-16T14:21:45.793Z,31.48
2018-05-16T14:24:13.217Z,35.24
2018-05-16T14:26:40.668Z,35.91
2018-05-16T14:29:08.157Z,34.70
2018-05-16T14:31:35.614Z,33.65
2018-05-16T14:34:03.043Z,33.65
2018-05-16T14:36:30.552Z,32.71
2018-05-16T14:38:57.976Z,36.04
2018-05-16T14:41:25.422Z,38.33
2018-05-16T14:43:53.794Z,39.71
2018-05-16T14:46:21.242Z,38.77
2018-05-16T14:48:48.750Z,41.34
2018-05-16T14:51:16.243Z,44.89
2018-05-16T14:53:44.671Z,45.92
2018-05-16T14:56:12.120Z,46.89
2018-05-16T14:58:39.574Z,47.23
2018-05-16T15:01:06.982Z,46.82
2018-05-16T15:03:34.420Z,47.75
2018-05-16T15:06:01.849Z,47.91
2018-05-16T15:08:29.317Z,40.82
2018-05-16T15:10:56.773Z,35.67
2018-05-16T15:13:24.294Z,32.29
2018-05-16T15:15:51.798Z,33.69
2018-05-16T15:18:19.382Z,35.41
2018-05-16T15:20:46.802Z,38.58
2018-05-16T15:23:14.218Z,36.18
2018-05-16T15:25:41.661Z,31.88
2018-05-16T15:28:09.171Z,29.85
2018-05-16T15:30:36.642Z,28.88
2018-05-16T15:33:04.060Z,28.22
2018-05-16T15:35:31.502Z,27.16
2018-05-16T15:37:58.917Z,26.63
2018-05-16T15:40:26.465Z,26.36
2018-05-16T15:42:53.875Z,25.95
2018-05-16T15:45:21.309Z,26.21
2018-05-16T15:47:48.722Z,25.81
2018-05-16T15:50:16.177Z,25.34
2018-05-16T15:52:43.637Z,25.48
2018-05-16T15:55:11.358Z,25.54
2018-05-16T15:57:38.773Z,25.30
2018-05-16T16:00:06.324Z,25.18
2018-05-16T16:02:33.769Z,25.17
2018-05-16T16:05:01.187Z,25.21
2018-05-16T16:07:28.629Z,25.42
2018-05-16T16:09:56.038Z,25.67
2018-05-16T16:12:23.485Z,25.93
2018-05-16T16:14:50.897Z,26.18
2018-05-16T16:17:18.345Z,26.99
2018-05-16T16:19:45.859Z,26.60
2018-05-16T16:22:14.246Z,26.74
2018-05-16T16:24:42.682Z,26.40
2018-05-16T16:27:10.121Z,26.75
2018-05-16T16:29:37.534Z,26.93
2018-05-16T16:32:04.981Z,26.99
2018-05-16T16:34:32.502Z,27.26
2018-05-16T16:37:00.008Z,27.83
2018-05-16T16:39:28.385Z,27.95
2018-05-16T16:41:55.827Z,27.84
2018-05-16T16:44:24.191Z,28.09
2018-05-16T16:46:51.674Z,28.35
2018-05-16T16:49:19.136Z,28.16
2018-05-16T16:51:46.589Z,28.61
2018-05-16T16:54:14.049Z,28.40
2018-05-16T16:56:41.465Z,32.43
2018-05-16T16:59:08.905Z,35.06
2018-05-16T17:01:38.339Z,36.32
2018-05-16T17:04:05.825Z,36.03
2018-05-16T17:06:33.378Z,39.37
2018-05-16T17:09:00.818Z,39.36
2018-05-16T17:11:28.241Z,40.17
2018-05-16T17:13:55.694Z,39.72
2018-05-16T17:16:23.190Z,38.71
2018-05-16T17:18:50.535Z,33.76
2018-05-16T17:21:18.009Z,30.35
2018-05-16T17:23:45.470Z,28.72
2018-05-16T17:26:12.918Z,27.92
2018-05-16T17:28:40.331Z,27.22
2018-05-16T17:31:07.837Z,26.56
2018-05-16T17:33:35.247Z,25.33
2018-05-16T17:36:02.724Z,25.00
2018-05-16T17:38:30.133Z,24.74
2018-05-16T17:40:57.591Z,24.36
2018-05-16T17:43:24.997Z,23.95
2018-05-16T17:45:52.445Z,23.98
2018-05-16T17:48:19.857Z,23.70
2018-05-16T17:50:47.339Z,23.67
2018-05-16T17:53:14.850Z,23.59
2018-05-16T17:55:42.313Z,23.52
2018-05-16T17:58:09.728Z,23.79
2018-05-16T18:00:37.159Z,23.41
2018-05-16T18:03:04.582Z,23.32
2018-05-16T18:05:32.131Z,23.28
2018-05-16T18:08:00.519Z,23.30
2018-05-16T18:10:27.979Z,23.32
2018-05-16T18:16:05.190Z,22.95
2018-05-16T18:18:33.554Z,22.80
2018-05-16T18:21:00.987Z,22.74
2018-05-16T18:23:28.425Z,22.52
2018-05-16T18:25:55.843Z,22.76
2018-05-16T18:28:23.281Z,22.63
2018-05-16T18:30:50.739Z,22.79
2018-05-16T18:33:18.190Z,22.61
2018-05-16T18:35:45.606Z,22.56
2018-05-16T18:38:13.050Z,22.25
2018-05-16T18:40:40.560Z,22.20
2018-05-16T18:43:08.049Z,22.00
2018-05-16T18:45:36.465Z,21.73
2018-05-16T18:48:03.879Z,21.62
2018-05-16T18:50:32.332Z,21.30
2018-05-16T18:52:59.746Z,21.15
2018-05-16T18:55:27.189Z,20.96
2018-05-16T18:57:54.598Z,20.78
2018-05-16T19:00:22.045Z,20.70
2018-05-16T19:02:49.473Z,20.75
2018-05-16T19:05:16.974Z,20.65
2018-05-16T19:07:44.398Z,20.57
2018-05-16T19:10:11.889Z,20.42
2018-05-16T19:12:39.301Z,20.45
2018-05-16T19:15:06.812Z,20.40
2018-05-16T19:17:34.217Z,20.31
2018-05-16T19:20:01.670Z,19.94
2018-05-16T19:22:29.086Z,19.85
2018-05-16T19:24:56.553Z,19.90
2018-05-16T19:27:23.965Z,19.76
2018-05-16T19:29:51.453Z,19.72
2018-05-16T19:32:18.926Z,19.54
2018-05-16T19:34:46.356Z,19.47
2018-05-16T19:37:13.904Z,19.31
2018-05-16T19:39:41.364Z,19.28
2018-05-16T19:42:08.838Z,19.30
2018-05-16T19:44:36.276Z,19.19
2018-05-16T19:47:03.762Z,18.99
2018-05-16T19:49:31.187Z,18.97
2018-05-16T19:52:00.622Z,18.90
2018-05-16T19:54:29.060Z,18.72
2018-05-16T19:56:56.510Z,18.62
2018-05-16T19:59:23.948Z,18.60
2018-05-16T20:01:51.403Z,18.47
2018-05-16T20:04:18.813Z,18.60
2018-05-16T20:06:46.252Z,18.55
2018-05-16T20:09:15.622Z,18.39
2018-05-16T20:11:43.077Z,18.29
2018-05-16T20:14:10.491Z,18.15
2018-05-16T20:16:37.898Z,18.07
2018-05-16T20:19:05.358Z,17.90
2018-05-16T20:21:32.838Z,17.79
2018-05-16T20:24:00.285Z,17.64
2018-05-16T20:26:27.750Z,17.67
2018-05-16T20:28:55.201Z,17.63
2018-05-16T20:31:22.626Z,17.62
2018-05-16T20:33:50.066Z,17.61
2018-05-16T20:36:17.473Z,17.45
2018-05-16T20:38:45.411Z,17.32
2018-05-16T20:41:12.827Z,17.35
2018-05-16T20:43:40.271Z,17.14
2018-05-16T20:46:07.715Z,16.99
2018-05-16T20:48:35.157Z,17.00
2018-05-16T20:51:02.627Z,17.06
2018-05-16T20:53:30.069Z,17.16
2018-05-16T20:55:57.490Z,17.01
2018-05-16T20:58:24.991Z,16.96
2018-05-16T21:00:52.417Z,16.72
2018-05-16T21:03:19.837Z,16.63
2018-05-16T21:05:47.278Z,16.50
2018-05-16T21:08:14.718Z,16.44
2018-05-16T21:10:42.158Z,16.42
2018-05-16T21:13:09.630Z,16.07
2018-05-16T21:15:37.089Z,16.29
2018-05-16T21:18:04.508Z,16.19
2018-05-16T21:20:31.981Z,16.26
2018-05-16T21:22:59.394Z,16.27
2018-05-16T21:25:26.910Z,16.37
2018-05-16T21:27:54.329Z,16.12
2018-05-16T21:30:21.771Z,15.88
2018-05-16T21:32:49.177Z,15.85
2018-05-16T21:35:17.234Z,15.76
2018-05-16T21:37:44.711Z,15.85
2018-05-16T21:40:12.153Z,15.86
2018-05-16T21:42:39.590Z,15.84
2018-05-16T21:45:07.081Z,15.75
2018-05-16T21:47:34.572Z,15.85
2018-05-16T21:50:02.005Z,15.72
2018-05-16T21:52:29.486Z,15.57
2018-05-16T21:54:56.899Z,15.50
2018-05-16T21:57:24.391Z,15.24
2018-05-16T21:59:51.810Z,14.98
2018-05-16T22:02:19.255Z,14.84
2018-05-16T22:04:46.665Z,14.86
2018-05-16T22:07:14.109Z,14.66
2018-05-16T22:09:41.529Z,14.51
2018-05-16T22:12:09.001Z,14.40
2018-05-16T22:14:36.433Z,14.45
2018-05-16T22:17:03.873Z,14.38
2018-05-16T22:19:31.290Z,14.24
2018-05-16T22:21:58.779Z,14.32
2018-05-16T22:24:26.198Z,14.27
2018-05-16T22:26:53.687Z,14.23
2018-05-16T22:29:21.202Z,14.18
2018-05-16T22:31:54.197Z,14.08
2018-05-16T22:34:28.181Z,13.81
2018-05-16T22:37:01.313Z,13.94
2018-05-16T22:39:34.390Z,13.95
2018-05-16T22:42:07.386Z,13.71
2018-05-16T22:44:39.369Z,13.51
2018-05-16T22:47:06.873Z,13.56
2018-05-16T22:49:34.289Z,13.33
2018-05-16T22:52:01.708Z,13.30
2018-05-16T22:54:29.149Z,13.17
2018-05-16T22:56:56.610Z,13.19
2018-05-16T22:59:24.093Z,13.38
2018-05-16T23:01:51.472Z,13.29
2018-05-16T23:04:19.890Z,13.20
2018-05-16T23:06:47.304Z,12.77
2018-05-16T23:09:14.743Z,12.55
2018-05-16T23:11:42.163Z,12.63
2018-05-16T23:14:09.601Z,12.56
2018-05-16T23:16:37.078Z,12.67
2018-05-16T23:19:04.539Z,12.61
2018-05-16T23:21:31.995Z,12.38
2018-05-16T23:23:59.413Z,12.32
2018-05-16T23:26:26.907Z,12.45
2018-05-16T23:28:54.330Z,12.53
2018-05-16T23:31:21.817Z,12.47
2018-05-16T23:33:49.275Z,12.38
2018-05-16T23:36:16.737Z,12.19
2018-05-16T23:38:44.190Z,12.35
2018-05-16T23:44:02.724Z,12.12
2018-05-16T23:46:30.169Z,12.05
2018-05-16T23:48:57.603Z,12.05
2018-05-16T23:51:25.046Z,11.91
2018-05-16T23:53:52.461Z,11.64
2018-05-16T23:56:19.937Z,11.85
2018-05-16T23:58:47.362Z,11.75
